createdAt,value
2017-12-13T00:02:17.542Z,86.05
2017-12-13T00:04:44.965Z,85.85
2017-12-13T00:07:12.386Z,85.98
2017-12-13T00:09:39.809Z,85.82
2017-12-13T00:12:07.229Z,85.88
2017-12-13T00:14:34.649Z,86.08
2017-12-13T00:17:02.078Z,86.31
2017-12-13T00:19:29.502Z,86.51
2017-12-13T00:21:56.938Z,86.64
2017-12-13T00:24:24.349Z,86.78
2017-12-13T00:26:51.770Z,86.76
2017-12-13T00:29:19.189Z,87.08
2017-12-13T00:31:46.614Z,87.17
2017-12-13T00:34:14.042Z,87.22
2017-12-13T00:36:41.457Z,87.16
2017-12-13T00:39:08.885Z,87.28
2017-12-13T00:41:36.305Z,87.47
2017-12-13T00:44:03.725Z,87.59
2017-12-13T00:46:31.149Z,87.77
2017-12-13T00:48:58.582Z,87.75
2017-12-13T00:51:26.002Z,88.00
2017-12-13T00:53:53.423Z,88.17
2017-12-13T00:56:20.853Z,88.15
2017-12-13T00:58:48.281Z,88.13
2017-12-13T01:01:15.694Z,88.26
2017-12-13T01:03:43.109Z,88.36
2017-12-13T01:06:10.526Z,88.58
2017-12-13T01:08:37.947Z,88.52
2017-12-13T01:11:05.366Z,88.42
2017-12-13T01:13:32.778Z,88.24
2017-12-13T01:16:00.201Z,88.79
2017-12-13T01:18:27.624Z,88.55
2017-12-13T01:20:55.051Z,88.26
2017-12-13T01:23:22.481Z,88.10
2017-12-13T01:25:49.898Z,88.25
2017-12-13T01:28:17.321Z,88.27
2017-12-13T01:30:44.734Z,87.99
2017-12-13T01:33:12.166Z,87.79
2017-12-13T01:35:39.588Z,87.44
2017-12-13T01:38:06.997Z,87.58
2017-12-13T01:40:34.443Z,87.57
2017-12-13T01:43:01.859Z,87.41
2017-12-13T01:45:29.288Z,87.61
2017-12-13T01:47:56.702Z,87.61
2017-12-13T01:50:24.110Z,87.42
2017-12-13T01:52:51.530Z,87.35
2017-12-13T01:55:18.950Z,87.13
2017-12-13T01:57:46.378Z,86.82
2017-12-13T02:00:13.789Z,86.60
2017-12-13T02:02:41.206Z,86.91
2017-12-13T02:05:08.658Z,86.70
2017-12-13T02:07:36.086Z,86.73
2017-12-13T02:10:03.518Z,86.78
2017-12-13T02:12:30.934Z,86.92
2017-12-13T02:14:58.357Z,87.10
2017-12-13T02:17:25.785Z,86.86
2017-12-13T02:19:53.253Z,86.60
2017-12-13T02:22:20.618Z,86.30
2017-12-13T02:24:48.030Z,85.82
2017-12-13T02:27:15.474Z,85.51
2017-12-13T02:29:42.885Z,85.80
2017-12-13T02:32:10.306Z,85.59
2017-12-13T02:34:37.730Z,85.33
2017-12-13T02:37:05.156Z,85.57
2017-12-13T02:39:32.586Z,85.38
2017-12-13T02:42:00.007Z,84.74
2017-12-13T02:44:27.419Z,84.45
2017-12-13T02:46:54.841Z,84.32
2017-12-13T02:49:22.262Z,83.94
2017-12-13T02:51:49.685Z,84.06
2017-12-13T02:54:17.105Z,83.87
2017-12-13T02:56:44.529Z,83.67
2017-12-13T02:59:11.955Z,83.68
2017-12-13T03:01:39.370Z,83.62
2017-12-13T03:04:06.790Z,83.86
2017-12-13T03:06:34.226Z,83.92
2017-12-13T03:09:01.646Z,83.98
2017-12-13T03:11:29.062Z,83.79
2017-12-13T03:13:56.493Z,83.88
2017-12-13T03:16:23.929Z,83.66
2017-12-13T03:18:51.345Z,83.86
2017-12-13T03:21:18.775Z,84.01
2017-12-13T03:23:46.190Z,83.64
2017-12-13T03:26:13.609Z,84.02
2017-12-13T03:28:41.034Z,83.89
2017-12-13T03:31:08.469Z,83.51
2017-12-13T03:33:35.883Z,83.63
2017-12-13T03:36:03.292Z,83.54
2017-12-13T03:38:30.711Z,83.56
2017-12-13T03:40:58.128Z,83.62
2017-12-13T03:43:25.541Z,83.78
2017-12-13T03:45:52.958Z,83.90
2017-12-13T03:48:20.386Z,83.99
2017-12-13T03:50:47.798Z,83.87
2017-12-13T03:53:15.206Z,83.62
2017-12-13T03:55:42.625Z,83.71
2017-12-13T03:58:10.043Z,83.60
2017-12-13T04:00:37.465Z,83.77
2017-12-13T04:03:04.869Z,83.49
2017-12-13T04:05:32.293Z,83.88
2017-12-13T04:07:59.710Z,83.89
2017-12-13T04:10:27.126Z,84.25
2017-12-13T04:12:54.562Z,83.84
2017-12-13T04:15:21.969Z,84.01
2017-12-13T04:17:49.390Z,84.13
2017-12-13T04:20:16.799Z,84.40
2017-12-13T04:22:44.238Z,83.82
2017-12-13T04:25:11.646Z,83.86
2017-12-13T04:27:39.061Z,83.88
2017-12-13T04:30:06.482Z,83.97
2017-12-13T04:32:33.901Z,84.37
2017-12-13T04:35:01.329Z,84.03
2017-12-13T04:37:28.750Z,83.69
2017-12-13T04:39:56.177Z,83.95
2017-12-13T04:42:23.598Z,83.92
2017-12-13T04:44:51.025Z,83.63
2017-12-13T04:47:18.437Z,83.64
2017-12-13T04:49:45.854Z,83.63
2017-12-13T04:52:13.266Z,83.59
2017-12-13T04:54:40.688Z,83.75
2017-12-13T04:57:08.116Z,83.50
2017-12-13T04:59:35.526Z,83.86
2017-12-13T05:02:02.945Z,83.79
2017-12-13T05:04:30.359Z,83.72
2017-12-13T05:06:57.766Z,83.67
2017-12-13T05:09:25.202Z,83.75
2017-12-13T05:11:52.621Z,83.67
2017-12-13T05:14:20.058Z,84.27
2017-12-13T05:16:47.473Z,84.34
2017-12-13T05:19:14.895Z,84.01
2017-12-13T05:21:42.313Z,84.33
2017-12-13T05:24:09.729Z,84.47
2017-12-13T05:26:37.150Z,84.73
2017-12-13T05:29:04.565Z,84.66
2017-12-13T05:31:33.170Z,84.90
2017-12-13T05:34:00.587Z,84.90
2017-12-13T05:36:28.077Z,84.91
2017-12-13T05:38:55.502Z,84.72
2017-12-13T05:41:22.914Z,84.73
2017-12-13T05:43:50.329Z,84.81
2017-12-13T05:46:17.751Z,84.66
2017-12-13T05:48:45.174Z,84.83
2017-12-13T05:51:12.610Z,84.96
2017-12-13T05:53:40.026Z,85.04
2017-12-13T05:56:07.446Z,85.09
2017-12-13T05:58:34.866Z,85.50
2017-12-13T06:01:02.296Z,85.75
2017-12-13T06:03:29.705Z,85.91
2017-12-13T06:05:57.113Z,85.80
2017-12-13T06:08:24.534Z,85.70
2017-12-13T06:10:51.949Z,85.83
2017-12-13T06:13:19.624Z,86.09
2017-12-13T06:15:47.034Z,85.91
2017-12-13T06:18:14.445Z,85.74
2017-12-13T06:20:41.870Z,85.95
2017-12-13T06:23:09.282Z,85.55
2017-12-13T06:25:36.709Z,85.71
2017-12-13T06:28:04.124Z,85.70
2017-12-13T06:30:31.537Z,85.86
2017-12-13T06:32:58.955Z,85.85
2017-12-13T06:35:26.373Z,85.51
2017-12-13T06:37:53.801Z,85.49
2017-12-13T06:40:21.210Z,85.33
2017-12-13T06:42:48.625Z,85.15
2017-12-13T06:45:16.042Z,85.27
2017-12-13T06:47:43.453Z,85.29
2017-12-13T06:50:10.886Z,85.14
2017-12-13T06:52:38.305Z,85.29
2017-12-13T06:55:05.734Z,85.07
2017-12-13T06:57:33.162Z,84.83
2017-12-13T07:00:00.620Z,84.63
2017-12-13T07:02:28.037Z,84.44
2017-12-13T07:04:55.449Z,84.12
2017-12-13T07:07:22.875Z,83.91
2017-12-13T07:09:50.299Z,83.86
2017-12-13T07:12:17.713Z,83.54
2017-12-13T07:14:45.146Z,83.46
2017-12-13T07:17:12.562Z,82.86
2017-12-13T07:19:39.982Z,82.82
2017-12-13T07:22:07.401Z,82.47
2017-12-13T07:24:34.818Z,82.66
2017-12-13T07:27:02.225Z,82.45
2017-12-13T07:29:29.627Z,82.38
2017-12-13T07:31:57.041Z,82.10
2017-12-13T07:34:24.449Z,81.96
2017-12-13T07:36:51.865Z,81.58
2017-12-13T07:39:19.279Z,81.07
2017-12-13T07:41:46.693Z,81.49
2017-12-13T07:44:14.106Z,80.76
2017-12-13T07:46:41.518Z,81.09
2017-12-13T07:49:08.924Z,80.67
2017-12-13T07:51:36.325Z,81.19
2017-12-13T07:54:03.729Z,80.90
2017-12-13T07:56:31.139Z,80.79
2017-12-13T07:58:58.566Z,80.38
2017-12-13T08:01:25.974Z,80.35
2017-12-13T08:03:53.383Z,80.18
2017-12-13T08:06:20.814Z,80.36
2017-12-13T08:08:48.219Z,79.40
2017-12-13T08:11:15.637Z,79.73
2017-12-13T08:13:43.046Z,79.97
2017-12-13T08:16:10.462Z,80.00
2017-12-13T08:18:37.861Z,79.86
2017-12-13T08:21:05.257Z,79.61
2017-12-13T08:23:32.674Z,79.59
2017-12-13T08:26:00.070Z,79.62
2017-12-13T08:28:27.474Z,79.41
2017-12-13T08:30:54.869Z,79.17
2017-12-13T08:33:22.292Z,79.41
2017-12-13T08:35:49.690Z,79.32
2017-12-13T08:38:17.094Z,79.14
2017-12-13T08:40:44.497Z,78.54
2017-12-13T08:43:11.911Z,78.72
2017-12-13T08:45:39.326Z,79.27
2017-12-13T08:48:06.722Z,79.03
2017-12-13T08:50:34.143Z,78.84
2017-12-13T08:53:01.546Z,79.02
2017-12-13T08:55:28.945Z,78.73
2017-12-13T08:57:56.347Z,78.96
2017-12-13T09:00:23.745Z,79.81
2017-12-13T09:02:51.158Z,80.30
2017-12-13T09:05:18.554Z,80.36
2017-12-13T09:07:45.966Z,81.02
2017-12-13T09:10:13.366Z,81.16
2017-12-13T09:12:40.766Z,82.19
2017-12-13T09:15:08.173Z,82.26
2017-12-13T09:17:35.574Z,82.29
2017-12-13T09:20:02.981Z,83.79
2017-12-13T09:22:30.378Z,84.54
2017-12-13T09:24:57.790Z,85.28
2017-12-13T09:27:25.194Z,85.10
2017-12-13T09:29:52.594Z,86.40
2017-12-13T09:32:20.266Z,86.88
2017-12-13T09:34:47.671Z,87.47
2017-12-13T09:37:15.090Z,87.76
2017-12-13T09:39:42.489Z,87.54
2017-12-13T09:42:09.913Z,88.37
2017-12-13T09:44:37.334Z,88.74
2017-12-13T09:47:04.753Z,89.01
2017-12-13T09:49:32.174Z,89.77
2017-12-13T09:51:59.583Z,90.22
2017-12-13T09:54:27.013Z,90.59
2017-12-13T09:56:54.430Z,90.88
2017-12-13T09:59:22.694Z,91.37
2017-12-13T10:01:50.099Z,91.91
2017-12-13T10:04:17.507Z,91.57
2017-12-13T10:06:44.931Z,92.24
2017-12-13T10:09:12.341Z,92.40
2017-12-13T10:11:39.754Z,92.65
2017-12-13T10:14:07.162Z,92.93
2017-12-13T10:16:34.584Z,93.04
2017-12-13T10:19:01.981Z,93.16
2017-12-13T10:21:29.387Z,93.32
2017-12-13T10:23:56.808Z,93.20
2017-12-13T10:26:24.226Z,93.50
2017-12-13T10:28:51.638Z,93.57
2017-12-13T10:31:19.046Z,93.61
2017-12-13T10:33:46.457Z,93.68
2017-12-13T10:36:13.858Z,93.83
2017-12-13T10:38:41.274Z,94.02
2017-12-13T10:41:08.690Z,94.00
2017-12-13T10:43:36.115Z,93.92
2017-12-13T10:46:03.521Z,93.92
2017-12-13T10:48:30.954Z,93.97
2017-12-13T10:50:58.382Z,93.88
2017-12-13T10:53:25.801Z,93.99
2017-12-13T10:55:53.218Z,94.08
2017-12-13T10:58:20.630Z,94.09
2017-12-13T11:00:48.062Z,93.63
2017-12-13T11:03:15.469Z,93.71
2017-12-13T11:05:42.874Z,93.72
2017-12-13T11:08:10.282Z,93.61
2017-12-13T11:10:37.698Z,93.75
2017-12-13T11:13:05.114Z,93.67
2017-12-13T11:15:32.521Z,93.86
2017-12-13T11:17:59.940Z,94.03
2017-12-13T11:20:27.335Z,93.74
2017-12-13T11:22:54.735Z,93.68
2017-12-13T11:25:22.154Z,93.71
2017-12-13T11:27:49.955Z,93.63
2017-12-13T11:30:17.382Z,93.68
2017-12-13T11:32:44.791Z,93.57
2017-12-13T11:35:12.198Z,93.41
2017-12-13T11:37:39.594Z,92.99
2017-12-13T11:40:06.990Z,93.11
2017-12-13T11:42:34.398Z,93.13
2017-12-13T11:45:01.802Z,93.07
2017-12-13T11:47:29.214Z,92.85
2017-12-13T11:49:56.609Z,92.47
2017-12-13T11:52:25.952Z,92.44
2017-12-13T11:54:53.365Z,92.11
2017-12-13T11:57:20.776Z,91.92
2017-12-13T11:59:48.171Z,91.90
2017-12-13T12:02:15.574Z,91.32
2017-12-13T12:04:42.993Z,91.64
2017-12-13T12:07:10.400Z,91.33
2017-12-13T12:09:37.790Z,91.47
2017-12-13T12:12:05.197Z,91.11
2017-12-13T12:14:32.598Z,91.34
2017-12-13T12:17:00.026Z,90.96
2017-12-13T12:19:27.422Z,90.61
2017-12-13T12:21:54.823Z,90.45
2017-12-13T12:24:22.226Z,90.55
2017-12-13T12:26:49.628Z,89.80
2017-12-13T12:29:17.040Z,90.28
2017-12-13T12:31:44.445Z,89.96
2017-12-13T12:34:11.848Z,89.79
2017-12-13T12:36:39.258Z,89.81
2017-12-13T12:39:06.658Z,89.64
2017-12-13T12:41:34.073Z,89.44
2017-12-13T12:44:01.466Z,89.40
2017-12-13T12:46:28.871Z,88.79
2017-12-13T12:48:56.275Z,87.98
2017-12-13T12:51:23.674Z,88.45
2017-12-13T12:53:51.081Z,89.23
2017-12-13T12:56:18.477Z,88.12
2017-12-13T12:58:45.870Z,88.76
2017-12-13T13:01:13.278Z,87.96
2017-12-13T13:03:40.674Z,87.73
2017-12-13T13:06:08.086Z,87.07
2017-12-13T13:08:35.481Z,87.36
2017-12-13T13:11:02.878Z,88.30
2017-12-13T13:13:30.286Z,88.14
2017-12-13T13:15:57.682Z,88.27
2017-12-13T13:18:25.094Z,88.41
2017-12-13T13:20:52.490Z,88.61
2017-12-13T13:23:19.885Z,89.23
2017-12-13T13:25:47.305Z,89.97
2017-12-13T13:28:14.734Z,90.07
2017-12-13T13:30:42.152Z,91.01
2017-12-13T13:33:09.556Z,91.36
2017-12-13T13:35:36.960Z,91.01
2017-12-13T13:38:04.358Z,91.15
2017-12-13T13:40:31.758Z,91.75
2017-12-13T13:42:59.169Z,91.66
2017-12-13T13:45:26.569Z,91.72
2017-12-13T13:47:53.982Z,91.97
2017-12-13T13:50:21.395Z,91.85
2017-12-13T13:52:48.801Z,91.92
2017-12-13T13:55:16.225Z,91.59
2017-12-13T13:57:43.638Z,91.74
2017-12-13T14:00:11.051Z,92.39
2017-12-13T14:02:38.458Z,92.41
2017-12-13T14:05:05.854Z,92.29
2017-12-13T14:07:33.273Z,92.07
2017-12-13T14:10:00.674Z,92.15
2017-12-13T14:12:28.074Z,92.24
2017-12-13T14:14:55.490Z,91.95
2017-12-13T14:17:22.898Z,91.16
2017-12-13T14:19:50.359Z,91.69
2017-12-13T14:22:17.753Z,91.99
2017-12-13T14:24:45.174Z,91.57
2017-12-13T14:27:12.594Z,92.10
2017-12-13T14:29:40.014Z,91.94
2017-12-13T14:32:07.426Z,92.05
2017-12-13T14:34:34.830Z,92.29
2017-12-13T14:37:02.257Z,91.81
2017-12-13T14:39:29.666Z,91.96
2017-12-13T14:41:57.066Z,91.97
2017-12-13T14:44:24.476Z,91.99
2017-12-13T14:46:51.898Z,91.46
2017-12-13T14:49:19.317Z,91.42
2017-12-13T14:51:46.746Z,91.25
2017-12-13T14:54:14.175Z,90.87
2017-12-13T14:56:41.585Z,91.00
2017-12-13T14:59:08.990Z,90.63
2017-12-13T15:01:36.398Z,90.57
2017-12-13T15:04:03.811Z,90.48
2017-12-13T15:06:31.209Z,90.41
2017-12-13T15:08:58.621Z,90.19
2017-12-13T15:11:26.034Z,90.11
2017-12-13T15:13:53.442Z,90.05
2017-12-13T15:16:20.853Z,90.15
2017-12-13T15:18:48.258Z,90.04
2017-12-13T15:21:15.686Z,90.10
2017-12-13T15:23:43.082Z,89.71
2017-12-13T15:26:10.478Z,89.55
2017-12-13T15:28:38.362Z,89.64
2017-12-13T15:31:05.770Z,89.48
2017-12-13T15:33:33.204Z,89.38
2017-12-13T15:36:00.606Z,89.52
2017-12-13T15:38:29.102Z,89.23
2017-12-13T15:40:56.506Z,89.23
2017-12-13T15:43:23.953Z,89.20
2017-12-13T15:45:51.424Z,88.92
2017-12-13T15:48:18.851Z,89.11
2017-12-13T15:50:46.273Z,89.27
2017-12-13T15:53:13.669Z,89.19
2017-12-13T15:55:42.141Z,89.08
2017-12-13T15:58:09.556Z,89.25
2017-12-13T16:00:37.086Z,89.13
2017-12-13T16:03:04.532Z,89.22
2017-12-13T16:05:32.923Z,88.87
2017-12-13T16:08:00.355Z,88.77
2017-12-13T16:10:27.976Z,88.41
2017-12-13T16:12:55.408Z,88.62
2017-12-13T16:15:22.867Z,88.17
2017-12-13T16:17:50.834Z,88.45
2017-12-13T16:20:18.258Z,89.16
2017-12-13T16:22:45.674Z,88.57
2017-12-13T16:25:13.098Z,88.80
2017-12-13T16:27:40.527Z,87.69
2017-12-13T16:30:07.973Z,88.20
2017-12-13T16:32:35.390Z,88.21
2017-12-13T16:35:02.877Z,88.33
2017-12-13T16:37:30.300Z,87.37
2017-12-13T16:39:57.849Z,88.17
2017-12-13T16:42:25.282Z,87.79
2017-12-13T16:44:52.694Z,87.76
2017-12-13T16:47:20.086Z,87.32
2017-12-13T16:49:47.502Z,87.26
2017-12-13T16:52:14.919Z,87.15
2017-12-13T16:54:42.347Z,87.46
2017-12-13T16:57:09.762Z,87.36
2017-12-13T16:59:37.166Z,87.37
2017-12-13T17:02:04.581Z,87.41
2017-12-13T17:04:31.994Z,87.69
2017-12-13T17:06:59.418Z,87.27
2017-12-13T17:09:26.831Z,87.87
2017-12-13T17:11:54.251Z,88.31
2017-12-13T17:14:21.658Z,88.45
2017-12-13T17:16:49.061Z,88.25
2017-12-13T17:19:16.494Z,88.58
2017-12-13T17:21:43.890Z,88.45
2017-12-13T17:24:11.321Z,88.87
2017-12-13T17:26:38.770Z,88.37
2017-12-13T17:29:06.168Z,89.06
2017-12-13T17:31:33.570Z,89.13
2017-12-13T17:34:00.966Z,89.04
2017-12-13T17:36:28.364Z,89.42
2017-12-13T17:38:55.770Z,89.82
2017-12-13T17:41:23.226Z,89.54
2017-12-13T17:43:50.652Z,89.64
2017-12-13T17:46:18.051Z,90.15
2017-12-13T17:48:45.458Z,90.29
2017-12-13T17:51:12.861Z,90.50
2017-12-13T17:53:40.266Z,90.16
2017-12-13T17:56:07.673Z,90.17
2017-12-13T17:58:35.078Z,90.69
2017-12-13T18:01:02.487Z,90.72
2017-12-13T18:03:29.882Z,90.67
2017-12-13T18:05:57.334Z,90.64
2017-12-13T18:08:24.746Z,89.97
2017-12-13T18:10:52.158Z,90.43
2017-12-13T18:13:19.554Z,90.25
2017-12-13T18:15:46.970Z,90.34
2017-12-13T18:18:14.369Z,90.30
2017-12-13T18:20:41.794Z,90.01
2017-12-13T18:23:09.190Z,90.20
2017-12-13T18:25:36.602Z,90.05
2017-12-13T18:28:04.002Z,89.38
2017-12-13T18:30:31.402Z,89.79
2017-12-13T18:32:58.814Z,90.26
2017-12-13T18:35:26.650Z,90.04
2017-12-13T18:37:54.153Z,89.85
2017-12-13T18:40:21.571Z,89.34
2017-12-13T18:42:48.966Z,90.18
2017-12-13T18:45:16.385Z,90.46
2017-12-13T18:47:43.786Z,90.36
2017-12-13T18:50:11.181Z,90.35
2017-12-13T18:52:38.586Z,90.52
2017-12-13T18:55:05.997Z,90.64
2017-12-13T18:57:33.414Z,90.22
2017-12-13T19:00:00.822Z,90.39
2017-12-13T19:02:28.222Z,90.54
2017-12-13T19:04:55.626Z,90.48
2017-12-13T19:07:23.030Z,90.66
2017-12-13T19:09:50.442Z,90.83
2017-12-13T19:12:17.875Z,90.80
2017-12-13T19:14:45.286Z,91.08
2017-12-13T19:17:12.690Z,90.77
2017-12-13T19:19:40.114Z,90.85
2017-12-13T19:22:07.518Z,91.25
2017-12-13T19:24:34.949Z,91.23
2017-12-13T19:27:02.430Z,91.35
2017-12-13T19:29:29.842Z,91.29
2017-12-13T19:31:57.245Z,91.43
2017-12-13T19:34:24.673Z,91.48
2017-12-13T19:36:52.073Z,91.58
2017-12-13T19:39:19.492Z,91.43
2017-12-13T19:41:46.913Z,91.28
2017-12-13T19:44:14.321Z,91.20
2017-12-13T19:46:41.734Z,91.44
2017-12-13T19:49:09.146Z,91.49
2017-12-13T19:51:36.620Z,91.71
2017-12-13T19:54:04.714Z,92.18
2017-12-13T19:56:32.132Z,92.56
2017-12-13T19:58:59.569Z,93.05
2017-12-13T20:01:27.000Z,93.59
2017-12-13T20:03:54.409Z,93.75
2017-12-13T20:06:21.814Z,94.15
2017-12-13T20:08:49.230Z,94.56
2017-12-13T20:11:16.639Z,95.00
2017-12-13T20:13:44.058Z,95.24
2017-12-13T20:16:11.478Z,95.28
2017-12-13T20:18:38.889Z,95.24
2017-12-13T20:21:07.073Z,95.43
2017-12-13T20:23:34.489Z,95.32
2017-12-13T20:26:01.918Z,95.22
2017-12-13T20:28:29.327Z,95.62
2017-12-13T20:30:56.750Z,95.57
2017-12-13T20:33:24.176Z,95.68
2017-12-13T20:35:51.578Z,96.01
2017-12-13T20:38:18.993Z,95.84
2017-12-13T20:40:46.398Z,95.74
2017-12-13T20:43:13.810Z,95.74
2017-12-13T20:45:41.253Z,95.75
2017-12-13T20:48:08.658Z,95.68
2017-12-13T20:50:36.082Z,95.82
2017-12-13T20:53:03.486Z,95.55
2017-12-13T20:55:30.906Z,95.37
2017-12-13T20:57:58.319Z,95.30
2017-12-13T21:00:25.782Z,95.24
2017-12-13T21:02:53.213Z,95.12
2017-12-13T21:05:20.625Z,95.16
2017-12-13T21:07:48.035Z,94.97
2017-12-13T21:10:15.444Z,94.91
2017-12-13T21:12:42.858Z,94.82
2017-12-13T21:15:10.278Z,94.79
2017-12-13T21:17:37.738Z,94.63
2017-12-13T21:20:05.098Z,94.58
2017-12-13T21:22:32.517Z,94.29
2017-12-13T21:24:59.926Z,94.53
2017-12-13T21:27:27.340Z,94.67
2017-12-13T21:29:54.765Z,94.89
2017-12-13T21:32:22.173Z,94.84
2017-12-13T21:34:49.585Z,94.89
2017-12-13T21:37:16.997Z,95.13
2017-12-13T21:39:44.450Z,95.37
2017-12-13T21:42:11.826Z,95.73
2017-12-13T21:44:39.242Z,96.00
2017-12-13T21:47:06.646Z,96.08
2017-12-13T21:49:34.055Z,96.04
2017-12-13T21:52:01.510Z,96.23
2017-12-13T21:54:28.902Z,96.58
2017-12-13T21:56:56.333Z,96.79
2017-12-13T21:59:23.738Z,96.76
2017-12-13T22:01:51.158Z,97.02
2017-12-13T22:04:18.573Z,97.06
2017-12-13T22:06:45.969Z,97.14
2017-12-13T22:09:13.539Z,97.36
2017-12-13T22:11:40.938Z,97.04
2017-12-13T22:14:08.352Z,97.00
2017-12-13T22:16:35.780Z,96.61
2017-12-13T22:19:03.201Z,96.22
2017-12-13T22:21:30.610Z,95.98
2017-12-13T22:23:58.017Z,95.57
2017-12-13T22:26:25.430Z,94.85
2017-12-13T22:28:52.850Z,94.44
2017-12-13T22:31:20.266Z,94.16
2017-12-13T22:33:47.669Z,93.43
2017-12-13T22:36:15.093Z,91.87
2017-12-13T22:38:42.507Z,92.07
2017-12-13T22:41:09.925Z,91.38
2017-12-13T22:43:37.334Z,90.77
2017-12-13T22:46:04.740Z,89.94
2017-12-13T22:48:32.147Z,90.00
2017-12-13T22:50:59.559Z,89.41
2017-12-13T22:53:26.970Z,89.11
2017-12-13T22:55:54.389Z,88.46
2017-12-13T22:58:21.798Z,88.27
2017-12-13T23:00:50.989Z,88.64
2017-12-13T23:03:18.404Z,88.94
2017-12-13T23:05:45.809Z,88.84
2017-12-13T23:08:13.234Z,88.28
2017-12-13T23:10:40.638Z,87.56
2017-12-13T23:13:08.046Z,88.38
2017-12-13T23:15:35.453Z,87.72
2017-12-13T23:18:02.864Z,88.41
2017-12-13T23:20:30.286Z,88.64
2017-12-13T23:22:57.689Z,88.53
2017-12-13T23:25:25.097Z,88.23
2017-12-13T23:27:52.511Z,88.32
2017-12-13T23:30:19.914Z,88.49
2017-12-13T23:32:47.334Z,87.62
2017-12-13T23:35:14.791Z,87.88
2017-12-13T23:37:42.190Z,87.66
2017-12-13T23:40:09.614Z,87.41
2017-12-13T23:42:37.018Z,87.36
2017-12-13T23:45:04.436Z,87.76
2017-12-13T23:47:31.838Z,86.87
2017-12-13T23:49:59.253Z,86.68
2017-12-13T23:52:26.671Z,85.90
2017-12-13T23:54:54.086Z,85.86
2017-12-13T23:57:21.535Z,86.35
2017-12-13T23:59:48.973Z,86.02
